Butler, Indiana
Current Conditions -  °F | °C
As of 11:15 PM on Sunday 23 Nov 2014 (Local Time) from KGWB Reporting Station
Moderate Rain Moderate Rain  
Wind Chill: 11°   Ceiling: 500
Heat Index: 11°   Visibility: 5mi
Dew Point: 10°   Wind: 7mph
Humidity: 94%   Direction: 150°SSE
Pressure: 29.18"   Gusts: NA
Location:  41.43°N, 84.87°W
Report Text: KGWB 240415Z AUTO 15006KT 5SM RA BKN005 BKN009 OVC014 11/10 A2918 RMK AO2 P0004
Loading
Personal Weather Stations






























Interactive Weather Map New forecast layout! Learn more

10-Day Weather Forecast

Advertisements
Track Severe Weather on mobile